createdAt,value
2022-08-25T00:01:50.955Z,5.05
2022-08-25T00:04:21.804Z,4.00
2022-08-25T00:06:50.403Z,6.15
2022-08-25T00:09:20.921Z,5.78
2022-08-25T00:11:50.754Z,6.82
2022-08-25T00:14:21.804Z,6.30
2022-08-25T00:16:50.051Z,4.07
2022-08-25T00:19:22.192Z,5.95
2022-08-25T00:21:50.407Z,6.25
2022-08-25T00:24:20.893Z,2.83
2022-08-25T00:26:51.736Z,4.90
2022-08-25T00:29:20.155Z,4.75
2022-08-25T00:31:48.742Z,5.43
2022-08-25T00:34:20.115Z,3.33
2022-08-25T00:36:50.846Z,3.35
2022-08-25T00:39:21.246Z,7.57
2022-08-25T00:41:50.357Z,4.15
2022-08-25T00:44:18.965Z,5.07
2022-08-25T00:46:48.917Z,5.35
2022-08-25T00:49:24.886Z,7.95
2022-08-25T00:51:59.977Z,3.20
2022-08-25T00:54:33.494Z,3.50
2022-08-25T00:57:04.631Z,4.63
2022-08-25T00:59:33.414Z,3.10
2022-08-25T01:02:02.136Z,5.95
2022-08-25T01:04:32.238Z,6.57
2022-08-25T01:07:02.743Z,4.25
2022-08-25T01:09:32.891Z,5.70
2022-08-25T01:12:02.401Z,7.55
2022-08-25T01:14:33.400Z,4.45
2022-08-25T01:17:01.922Z,3.00
2022-08-25T01:19:33.837Z,4.07
2022-08-25T01:22:03.594Z,3.05
2022-08-25T01:24:40.233Z,3.58
2022-08-25T01:27:09.542Z,5.45
2022-08-25T01:29:38.067Z,6.55
2022-08-25T01:32:09.205Z,4.70
2022-08-25T01:34:41.087Z,2.95
2022-08-25T01:37:13.186Z,4.93
2022-08-25T01:39:42.644Z,4.57
2022-08-25T01:42:20.703Z,5.22
2022-08-25T01:44:49.078Z,4.88
2022-08-25T01:47:17.433Z,3.45
2022-08-25T01:49:45.992Z,3.65
2022-08-25T01:52:17.958Z,4.18
2022-08-25T01:54:46.397Z,4.20
2022-08-25T01:57:14.264Z,3.72
2022-08-25T01:59:42.296Z,5.30
2022-08-25T02:02:10.925Z,3.70
2022-08-25T02:04:39.549Z,3.72
2022-08-25T02:07:10.197Z,6.10
2022-08-25T02:09:40.200Z,4.55
2022-08-25T02:12:09.630Z,3.35
2022-08-25T02:14:38.266Z,3.97
2022-08-25T02:17:07.679Z,3.25
2022-08-25T02:19:35.477Z,4.15
2022-08-25T02:22:03.371Z,3.47
2022-08-25T02:24:31.425Z,4.78
2022-08-25T02:27:00.633Z,4.85
2022-08-25T02:29:28.467Z,5.80
2022-08-25T02:31:56.585Z,4.38
2022-08-25T02:34:24.419Z,3.92
2022-08-25T02:36:52.267Z,6.22
2022-08-25T02:39:20.920Z,5.38
2022-08-25T02:41:48.747Z,3.75
2022-08-25T02:44:18.137Z,3.55
2022-08-25T02:46:46.240Z,3.95
2022-08-25T02:49:14.055Z,5.55
2022-08-25T02:51:43.214Z,4.40
2022-08-25T02:54:11.092Z,2.92
2022-08-25T02:56:40.121Z,5.18
2022-08-25T02:59:08.109Z,5.20
2022-08-25T03:01:37.320Z,4.28
2022-08-25T03:04:07.188Z,6.00
2022-08-25T03:06:35.482Z,4.72
2022-08-25T03:09:03.349Z,3.55
2022-08-25T03:11:31.839Z,3.80
2022-08-25T03:13:59.977Z,7.82
2022-08-25T03:16:28.259Z,7.00
2022-08-25T03:18:59.631Z,6.93
2022-08-25T03:21:29.077Z,5.35
2022-08-25T03:23:57.838Z,4.05
2022-08-25T03:26:43.315Z,6.28
2022-08-25T03:29:11.661Z,6.03
2022-08-25T03:31:40.055Z,10.43
2022-08-25T03:34:09.678Z,7.47
2022-08-25T03:36:38.759Z,5.70
2022-08-25T03:39:08.622Z,8.82
2022-08-25T03:41:36.908Z,8.77
2022-08-25T03:44:06.993Z,11.10
2022-08-25T03:46:38.240Z,4.57
2022-08-25T03:49:08.779Z,5.85
2022-08-25T03:51:40.417Z,4.13
2022-08-25T03:54:09.297Z,6.53
2022-08-25T03:56:37.212Z,7.60
2022-08-25T03:59:06.042Z,4.57
2022-08-25T04:01:35.191Z,9.57
2022-08-25T04:04:03.106Z,4.03
2022-08-25T04:06:31.186Z,6.72
2022-08-25T04:09:00.709Z,7.25
2022-08-25T04:11:29.181Z,4.32
2022-08-25T04:13:59.286Z,8.05
2022-08-25T04:16:30.686Z,5.50
2022-08-25T04:19:00.613Z,7.47
2022-08-25T04:21:29.652Z,6.82
2022-08-25T04:23:58.235Z,5.05
2022-08-25T04:26:30.147Z,6.18
2022-08-25T04:29:00.145Z,6.25
2022-08-25T04:31:29.573Z,4.63
2022-08-25T04:33:58.122Z,7.03
2022-08-25T04:36:26.335Z,6.30
2022-08-25T04:38:54.368Z,7.05
2022-08-25T04:41:24.784Z,4.88
2022-08-25T04:43:54.626Z,5.15
2022-08-25T04:46:24.378Z,5.20
2022-08-25T04:48:55.760Z,4.63
2022-08-25T04:51:26.657Z,4.65
2022-08-25T04:53:54.534Z,5.63
2022-08-25T04:56:26.274Z,10.60
2022-08-25T04:58:56.582Z,4.95
2022-08-25T05:01:27.212Z,5.68
2022-08-25T05:03:57.456Z,6.70
2022-08-25T05:06:26.575Z,6.97
2022-08-25T05:08:54.577Z,5.35
2022-08-25T05:11:23.586Z,7.78
2022-08-25T05:13:54.265Z,4.72
2022-08-25T05:16:25.029Z,3.78
2022-08-25T05:18:54.029Z,4.28
2022-08-25T05:21:24.203Z,5.75
2022-08-25T05:23:56.801Z,5.22
2022-08-25T05:26:26.321Z,6.38
2022-08-25T05:28:56.819Z,5.60
2022-08-25T05:31:27.234Z,4.22
2022-08-25T05:33:55.899Z,3.92
2022-08-25T05:36:25.087Z,7.03
2022-08-25T05:38:52.891Z,7.03
2022-08-25T05:41:22.945Z,5.28
2022-08-25T05:43:51.418Z,5.38
2022-08-25T05:46:21.186Z,5.78
2022-08-25T05:48:50.728Z,4.82
2022-08-25T05:51:19.872Z,3.60
2022-08-25T05:53:50.016Z,3.75
2022-08-25T05:56:18.821Z,4.25
2022-08-25T05:58:47.628Z,4.63
2022-08-25T06:01:45.403Z,7.05
2022-08-25T06:04:15.335Z,8.57
2022-08-25T06:06:43.882Z,4.65
2022-08-25T06:09:12.556Z,4.07
2022-08-25T06:11:41.309Z,4.75
2022-08-25T06:14:10.558Z,4.50
2022-08-25T06:16:38.841Z,4.30
2022-08-25T06:19:08.433Z,8.27
2022-08-25T06:21:39.411Z,4.40
2022-08-25T06:24:10.965Z,4.88
2022-08-25T06:26:41.795Z,4.57
2022-08-25T06:29:09.682Z,10.40
2022-08-25T06:31:37.555Z,3.65
2022-08-25T06:34:06.324Z,6.53
2022-08-25T06:36:34.728Z,6.65
2022-08-25T06:39:04.645Z,5.00
2022-08-25T06:41:36.987Z,5.75
2022-08-25T06:44:06.154Z,6.47
2022-08-25T06:46:36.463Z,4.72
2022-08-25T06:49:05.836Z,7.80
2022-08-25T06:51:36.394Z,5.18
2022-08-25T06:54:07.791Z,4.05
2022-08-25T06:56:35.843Z,3.35
2022-08-25T06:59:04.957Z,7.82
2022-08-25T07:01:33.729Z,4.75
2022-08-25T07:04:04.262Z,8.00
2022-08-25T07:06:35.668Z,7.07
2022-08-25T07:09:06.703Z,3.83
2022-08-25T07:11:34.853Z,5.65
2022-08-25T07:14:03.483Z,9.10
2022-08-25T07:16:32.311Z,4.28
2022-08-25T07:19:00.770Z,4.15
2022-08-25T07:21:33.636Z,7.13
2022-08-25T07:24:07.001Z,10.03
2022-08-25T07:26:38.543Z,5.97
2022-08-25T07:29:09.973Z,3.35
2022-08-25T07:31:38.116Z,5.75
2022-08-25T07:34:23.771Z,4.20
2022-08-25T07:36:53.636Z,7.65
2022-08-25T07:39:23.129Z,4.70
2022-08-25T07:41:52.752Z,4.65
2022-08-25T07:44:21.210Z,4.80
2022-08-25T07:49:39.854Z,4.18
2022-08-25T07:52:09.128Z,7.18
2022-08-25T07:54:38.708Z,3.13
2022-08-25T07:57:09.461Z,6.22
2022-08-25T07:59:41.657Z,8.73
2022-08-25T08:02:15.974Z,4.20
2022-08-25T08:04:49.747Z,7.63
2022-08-25T08:07:19.389Z,4.70
2022-08-25T08:10:00.190Z,7.93
2022-08-25T08:12:34.937Z,9.65
2022-08-25T08:15:03.952Z,10.25
2022-08-25T08:17:39.688Z,6.50
2022-08-25T08:20:08.941Z,6.78
2022-08-25T08:22:37.229Z,5.07
2022-08-25T08:25:08.574Z,6.13
2022-08-25T08:27:39.159Z,4.97
2022-08-25T08:30:08.449Z,5.32
2022-08-25T08:33:05.965Z,4.90
2022-08-25T08:35:25.341Z,8.15
2022-08-25T08:37:53.914Z,6.75
2022-08-25T08:40:24.678Z,4.00
2022-08-25T08:43:05.346Z,4.95
2022-08-25T08:45:40.402Z,4.07
2022-08-25T08:48:37.718Z,5.30
2022-08-25T08:51:18.601Z,5.60
2022-08-25T08:53:57.214Z,5.22
2022-08-25T08:56:31.601Z,5.18
2022-08-25T08:59:06.112Z,6.30
2022-08-25T09:01:37.195Z,3.25
2022-08-25T09:04:12.308Z,8.40
2022-08-25T09:06:43.895Z,3.10
2022-08-25T09:09:16.325Z,9.45
2022-08-25T09:12:01.317Z,4.78
2022-08-25T09:14:43.771Z,3.58
2022-08-25T09:17:21.596Z,8.45
2022-08-25T09:20:18.959Z,2.63
2022-08-25T09:23:01.114Z,5.43
2022-08-25T09:25:54.375Z,4.80
2022-08-25T09:28:31.360Z,4.75
2022-08-25T09:31:01.309Z,4.22
2022-08-25T09:33:33.677Z,6.93
2022-08-25T09:36:06.412Z,5.95
2022-08-25T09:38:37.133Z,7.68
2022-08-25T09:41:06.808Z,11.65
2022-08-25T09:43:38.221Z,3.50
2022-08-25T09:46:13.487Z,4.43
2022-08-25T09:48:48.431Z,3.35
2022-08-25T09:51:27.912Z,5.72
2022-08-25T09:53:59.128Z,3.15
2022-08-25T09:56:31.456Z,2.65
2022-08-25T09:59:21.387Z,3.90
2022-08-25T10:02:05.759Z,3.10
2022-08-25T10:04:36.962Z,29.15
2022-08-25T10:07:20.064Z,4.00
2022-08-25T10:09:54.365Z,5.30
2022-08-25T10:12:27.797Z,4.93
2022-08-25T10:14:57.329Z,4.32
2022-08-25T10:17:29.515Z,5.05
2022-08-25T10:20:17.268Z,8.23
2022-08-25T10:22:48.321Z,3.45
2022-08-25T10:25:25.684Z,3.10
2022-08-25T10:28:04.432Z,3.55
2022-08-25T10:30:54.114Z,4.03
2022-08-25T10:33:30.581Z,3.33
2022-08-25T10:36:05.715Z,4.68
2022-08-25T10:38:42.967Z,4.28
2022-08-25T10:41:28.574Z,8.73
2022-08-25T10:46:39.180Z,2.97
2022-08-25T10:49:14.574Z,2.25
2022-08-25T10:51:57.074Z,6.18
2022-08-25T10:54:36.773Z,1.45
2022-08-25T10:57:17.268Z,4.47
2022-08-25T11:00:00.522Z,6.53
2022-08-25T11:02:58.331Z,3.53
2022-08-25T11:05:29.834Z,3.25
2022-08-25T11:08:07.921Z,5.10
2022-08-25T11:10:43.371Z,7.80
2022-08-25T11:13:18.369Z,3.72
2022-08-25T11:16:16.134Z,3.45
2022-08-25T11:18:51.353Z,4.00
2022-08-25T11:21:24.888Z,3.78
2022-08-25T11:24:00.225Z,8.15
2022-08-25T11:26:36.813Z,4.45
2022-08-25T11:29:11.586Z,2.88
2022-08-25T11:31:52.147Z,4.03
2022-08-25T11:34:23.536Z,5.10
2022-08-25T11:36:54.670Z,11.02
2022-08-25T11:39:43.303Z,5.30
2022-08-25T11:42:24.407Z,2.28
2022-08-25T11:45:03.158Z,2.13
2022-08-25T11:47:49.022Z,3.28
2022-08-25T11:50:31.142Z,4.72
2022-08-25T11:53:26.632Z,1.80
2022-08-25T11:56:02.399Z,3.67
2022-08-25T11:58:40.884Z,5.43
2022-08-25T12:01:12.574Z,2.90
2022-08-25T12:03:55.401Z,2.30
2022-08-25T12:06:29.862Z,3.72
2022-08-25T12:09:24.762Z,3.90
2022-08-25T12:11:55.127Z,3.17
2022-08-25T12:14:44.185Z,4.05
2022-08-25T12:17:29.577Z,2.63
2022-08-25T12:20:00.847Z,3.72
2022-08-25T12:22:51.604Z,12.75
2022-08-25T12:25:51.634Z,2.38
2022-08-25T12:28:48.613Z,3.78
2022-08-25T12:31:30.563Z,4.32
2022-08-25T12:34:17.157Z,2.83
2022-08-25T12:36:58.533Z,5.25
2022-08-25T12:39:34.846Z,3.30
2022-08-25T12:42:06.816Z,6.15
2022-08-25T12:44:41.165Z,2.60
2022-08-25T12:47:28.491Z,5.32
2022-08-25T12:50:33.361Z,2.38
2022-08-25T12:53:11.314Z,7.03
2022-08-25T12:55:46.599Z,4.13
2022-08-25T12:58:14.755Z,10.52
2022-08-25T13:01:01.828Z,2.85
2022-08-25T13:04:01.670Z,4.45
2022-08-25T13:06:48.739Z,4.38
2022-08-25T13:10:03.948Z,4.20
2022-08-25T13:12:40.920Z,2.45
2022-08-25T13:15:14.643Z,3.70
2022-08-25T13:17:42.647Z,4.47
2022-08-25T13:20:16.352Z,2.60
2022-08-25T13:22:48.265Z,3.58
2022-08-25T13:25:23.164Z,5.80
2022-08-25T13:28:04.494Z,3.45
2022-08-25T13:30:35.796Z,6.18
2022-08-25T13:33:17.845Z,2.17
2022-08-25T13:35:51.715Z,4.85
2022-08-25T13:38:19.823Z,3.15
2022-08-25T13:40:47.749Z,2.65
2022-08-25T13:43:17.898Z,4.93
2022-08-25T13:45:55.322Z,2.90
2022-08-25T13:48:35.583Z,4.03
2022-08-25T13:51:22.456Z,3.67
2022-08-25T13:53:53.519Z,2.05
2022-08-25T13:56:38.462Z,12.07
2022-08-25T13:59:23.053Z,4.40
2022-08-25T14:01:54.193Z,7.18
2022-08-25T14:04:32.107Z,2.30
2022-08-25T14:07:19.338Z,2.35
2022-08-25T14:09:51.705Z,3.50
2022-08-25T14:12:33.420Z,1.98
2022-08-25T14:15:31.976Z,3.53
2022-08-25T14:18:07.312Z,3.47
2022-08-25T14:20:37.697Z,5.53
2022-08-25T14:23:09.870Z,5.82
2022-08-25T14:25:40.755Z,5.45
2022-08-25T14:28:13.816Z,5.88
2022-08-25T14:30:47.269Z,8.55
2022-08-25T14:33:17.777Z,9.05
2022-08-25T14:35:50.218Z,8.38
2022-08-25T14:38:21.208Z,9.23
2022-08-25T14:40:51.114Z,15.20
2022-08-25T14:43:23.826Z,7.03
2022-08-25T14:45:54.048Z,10.05
2022-08-25T14:48:27.688Z,6.63
2022-08-25T14:50:57.797Z,9.32
2022-08-25T14:53:25.808Z,11.98
2022-08-25T14:55:58.786Z,8.35
2022-08-25T14:58:33.835Z,7.97
2022-08-25T15:03:38.684Z,21.38
2022-08-25T15:06:07.486Z,7.68
2022-08-25T15:08:56.939Z,4.70
2022-08-25T15:11:24.933Z,6.05
2022-08-25T15:13:54.651Z,8.82
2022-08-25T15:16:34.012Z,9.93
2022-08-25T15:19:06.596Z,11.55
2022-08-25T15:21:35.845Z,8.90
2022-08-25T15:24:04.280Z,6.63
2022-08-25T15:26:44.011Z,6.35
2022-08-25T15:29:12.659Z,7.28
2022-08-25T15:31:42.020Z,7.47
2022-08-25T15:34:11.781Z,15.32
2022-08-25T15:36:40.512Z,7.13
2022-08-25T15:39:10.395Z,9.57
2022-08-25T15:41:38.522Z,8.82
2022-08-25T15:44:07.783Z,13.32
2022-08-25T15:46:37.908Z,9.05
2022-08-25T15:49:07.893Z,11.48
2022-08-25T15:51:36.056Z,13.93
2022-08-25T15:54:04.493Z,29.10
2022-08-25T15:56:32.356Z,17.27
2022-08-25T15:59:04.622Z,8.07
2022-08-25T16:01:37.338Z,11.38
2022-08-25T16:04:05.382Z,15.27
2022-08-25T16:06:35.243Z,12.57
2022-08-25T16:09:03.615Z,13.98
2022-08-25T16:11:34.873Z,14.05
2022-08-25T16:14:03.785Z,11.93
2022-08-25T16:16:33.167Z,13.77
2022-08-25T16:19:02.049Z,12.32
2022-08-25T16:21:33.703Z,13.00
2022-08-25T16:24:08.013Z,12.38
2022-08-25T16:26:37.074Z,13.38
2022-08-25T16:29:06.540Z,17.10
2022-08-25T16:31:34.709Z,13.35
2022-08-25T16:34:02.867Z,19.30
2022-08-25T16:36:30.872Z,14.10
2022-08-25T16:39:00.928Z,12.00
2022-08-25T16:41:35.724Z,12.80
2022-08-25T16:44:07.821Z,15.68
2022-08-25T16:46:40.730Z,15.38
2022-08-25T16:49:09.587Z,16.88
2022-08-25T16:51:38.025Z,14.32
2022-08-25T16:54:25.381Z,14.35
2022-08-25T16:56:55.540Z,17.40
2022-08-25T16:59:24.331Z,15.50
2022-08-25T17:01:53.316Z,16.80
2022-08-25T17:04:29.459Z,12.48
2022-08-25T17:07:01.947Z,17.20
2022-08-25T17:09:30.660Z,14.98
2022-08-25T17:11:59.809Z,10.70
2022-08-25T17:14:27.651Z,16.63
2022-08-25T17:16:55.599Z,11.50
2022-08-25T17:19:26.030Z,13.65
2022-08-25T17:21:55.107Z,13.48
2022-08-25T17:24:29.311Z,11.05
2022-08-25T17:27:00.115Z,15.00
2022-08-25T17:29:29.389Z,16.17
2022-08-25T17:31:59.190Z,10.80
2022-08-25T17:34:28.195Z,15.73
2022-08-25T17:36:57.694Z,14.23
2022-08-25T17:39:26.270Z,17.38
2022-08-25T17:41:54.659Z,17.30
2022-08-25T17:44:24.994Z,13.05
2022-08-25T17:46:53.027Z,10.35
2022-08-25T17:49:22.529Z,10.30
2022-08-25T17:51:50.933Z,16.73
2022-08-25T17:54:18.792Z,12.32
2022-08-25T17:56:46.570Z,11.38
2022-08-25T17:59:16.379Z,16.10
2022-08-25T18:01:47.073Z,14.80
2022-08-25T18:04:17.764Z,12.90
2022-08-25T18:06:46.454Z,11.77
2022-08-25T18:09:14.848Z,14.13
2022-08-25T18:11:42.951Z,16.73
2022-08-25T18:14:11.570Z,9.93
2022-08-25T18:16:40.783Z,16.35
2022-08-25T18:19:14.451Z,18.83
2022-08-25T18:21:43.167Z,17.52
2022-08-25T18:24:13.496Z,19.60
2022-08-25T18:26:41.968Z,13.00
2022-08-25T18:29:12.944Z,19.55
2022-08-25T18:31:42.161Z,18.20
2022-08-25T18:34:11.809Z,18.30
2022-08-25T18:36:41.394Z,15.60
2022-08-25T18:39:29.577Z,19.80
2022-08-25T18:42:01.714Z,22.30
2022-08-25T18:44:30.432Z,20.88
2022-08-25T18:46:58.273Z,19.73
2022-08-25T18:49:28.660Z,22.30
2022-08-25T18:51:57.037Z,22.95
2022-08-25T18:54:24.835Z,20.67
2022-08-25T18:56:54.625Z,28.50
2022-08-25T18:59:24.110Z,22.92
2022-08-25T19:01:53.598Z,33.47
2022-08-25T19:04:28.300Z,20.27
2022-08-25T19:07:01.197Z,24.50
2022-08-25T19:09:30.556Z,18.05
2022-08-25T19:11:58.633Z,21.77
2022-08-25T19:14:26.815Z,20.75
2022-08-25T19:16:58.127Z,18.13
2022-08-25T19:19:26.240Z,21.75
2022-08-25T19:21:54.110Z,19.60
2022-08-25T19:24:23.588Z,20.73
2022-08-25T19:26:54.517Z,20.95
2022-08-25T19:29:23.276Z,19.52
2022-08-25T19:31:53.418Z,20.40
2022-08-25T19:34:28.400Z,18.00
2022-08-25T19:37:00.975Z,17.65
2022-08-25T19:39:31.407Z,19.45
2022-08-25T19:42:00.399Z,20.73
2022-08-25T19:44:31.242Z,20.98
2022-08-25T19:47:00.132Z,12.68
2022-08-25T19:49:34.317Z,13.82
2022-08-25T19:52:10.490Z,17.35
2022-08-25T19:54:44.155Z,17.80
2022-08-25T19:57:14.133Z,19.25
2022-08-25T19:59:56.441Z,17.60
2022-08-25T20:02:29.857Z,22.25
2022-08-25T20:05:00.380Z,18.30
2022-08-25T20:07:31.115Z,14.20
2022-08-25T20:10:01.082Z,13.45
2022-08-25T20:12:30.146Z,13.73
2022-08-25T20:14:58.427Z,15.73
2022-08-25T20:17:28.256Z,21.83
2022-08-25T20:19:59.751Z,17.30
2022-08-25T20:22:29.917Z,20.05
2022-08-25T20:25:02.615Z,11.15
2022-08-25T20:27:37.914Z,16.33
2022-08-25T20:30:10.567Z,12.98
2022-08-25T20:32:39.181Z,12.18
2022-08-25T20:35:12.915Z,10.13
2022-08-25T20:37:41.766Z,14.95
2022-08-25T20:40:13.806Z,15.30
2022-08-25T20:42:43.597Z,7.82
2022-08-25T20:45:15.205Z,7.78
2022-08-25T20:47:44.315Z,12.02
2022-08-25T20:50:12.932Z,11.30
2022-08-25T20:52:43.870Z,7.10
2022-08-25T20:55:13.798Z,9.30
2022-08-25T20:57:41.849Z,9.15
2022-08-25T21:00:11.283Z,11.80
2022-08-25T21:02:39.519Z,9.18
2022-08-25T21:05:08.822Z,5.82
2022-08-25T21:07:36.824Z,7.28
2022-08-25T21:10:10.746Z,6.25
2022-08-25T21:12:45.023Z,5.13
2022-08-25T21:15:18.203Z,8.60
2022-08-25T21:17:50.340Z,7.30
2022-08-25T21:20:18.681Z,5.32
2022-08-25T21:22:46.608Z,7.78
2022-08-25T21:25:14.514Z,10.93
2022-08-25T21:27:44.419Z,7.75
2022-08-25T21:30:16.168Z,10.05
2022-08-25T21:32:52.735Z,9.80
2022-08-25T21:35:23.030Z,6.35
2022-08-25T21:37:52.999Z,7.90
2022-08-25T21:40:22.015Z,6.55
2022-08-25T21:42:51.993Z,10.80
2022-08-25T21:45:21.948Z,14.70
2022-08-25T21:47:50.048Z,10.30
2022-08-25T21:50:20.066Z,9.43
2022-08-25T21:52:48.192Z,13.68
2022-08-25T21:55:22.431Z,10.60
2022-08-25T21:57:52.606Z,10.07
2022-08-25T22:00:22.499Z,11.45
2022-08-25T22:02:50.594Z,11.98
2022-08-25T22:05:18.626Z,11.93
2022-08-25T22:07:46.701Z,8.90
2022-08-25T22:10:16.714Z,15.73
2022-08-25T22:12:46.088Z,9.80
2022-08-25T22:15:17.895Z,10.23
2022-08-25T22:17:46.314Z,7.60
2022-08-25T22:20:17.267Z,10.90
2022-08-25T22:22:45.080Z,11.98
2022-08-25T22:25:13.349Z,11.45
2022-08-25T22:27:41.553Z,9.57
2022-08-25T22:30:10.726Z,9.93
2022-08-25T22:32:39.924Z,8.35
2022-08-25T22:35:09.497Z,8.15
2022-08-25T22:37:37.753Z,11.23
2022-08-25T22:40:06.598Z,7.07
2022-08-25T22:42:34.459Z,7.93
2022-08-25T22:45:02.450Z,5.60
2022-08-25T22:47:31.537Z,9.65
2022-08-25T22:50:00.757Z,9.52
2022-08-25T22:52:33.347Z,12.88
2022-08-25T22:55:01.872Z,8.38
2022-08-25T22:57:30.269Z,6.53
2022-08-25T22:59:59.255Z,6.95
2022-08-25T23:02:27.615Z,7.13
2022-08-25T23:05:00.830Z,6.35
2022-08-25T23:07:31.007Z,10.27
2022-08-25T23:09:59.959Z,7.70
2022-08-25T23:12:27.791Z,10.55
2022-08-25T23:14:56.422Z,9.10
2022-08-25T23:17:24.602Z,10.88
2022-08-25T23:19:52.419Z,8.73
2022-08-25T23:22:19.810Z,9.95
2022-08-25T23:24:51.891Z,6.50
2022-08-25T23:27:22.070Z,10.75
2022-08-25T23:29:51.139Z,10.43
2022-08-25T23:32:19.518Z,7.68
2022-08-25T23:34:47.966Z,6.32
2022-08-25T23:37:18.408Z,7.03
2022-08-25T23:39:50.053Z,12.57
2022-08-25T23:42:19.109Z,15.52
2022-08-25T23:44:47.105Z,10.93
2022-08-25T23:47:15.152Z,6.50
2022-08-25T23:49:42.998Z,8.20
2022-08-25T23:52:11.341Z,10.82
2022-08-25T23:54:39.418Z,6.82
2022-08-25T23:57:09.063Z,6.00
2022-08-25T23:59:37.550Z,10.15
